Terminal Aerodrome Forecast
Issued by NWS

Home | Current Version | Previous Version | Text Only | Print | Product List | Glossary On
Versions: 1 2 3 4 5 6 7 8 9 10 11 12 13 14 15 16 17 18 19 20 21 22 23 24 25 26 27 28 29 30 31 32 33 34 35
000
FTUS43 KDTX 010300 AAA
TAFYIP
TAF AMD
KYIP 010337Z 0104/0124 34006KT P6SM OVC012
     FM010700 35005KT 4SM BR OVC009
     FM010900 36003KT 2SM BR OVC005
     FM011400 05005KT P6SM SCT008 OVC016
     FM011900 08005KT P6SM BKN020=

USA.gov is the U.S. government's official web portal to all federal, state and local government web resources and services.